createdAt,value
2017-06-24T00:00:16.273Z,10.45
2017-06-24T00:02:42.973Z,11.40
2017-06-24T00:05:09.659Z,11.60
2017-06-24T00:07:36.377Z,11.50
2017-06-24T00:10:03.063Z,11.10
2017-06-24T00:12:29.785Z,12.50
2017-06-24T00:14:56.468Z,12.63
2017-06-24T00:17:23.149Z,13.40
2017-06-24T00:19:49.829Z,11.95
2017-06-24T00:22:16.517Z,11.55
2017-06-24T00:24:43.201Z,12.18
2017-06-24T00:27:09.888Z,12.43
2017-06-24T00:29:36.588Z,11.77
2017-06-24T00:32:03.261Z,12.20
2017-06-24T00:34:29.963Z,12.88
2017-06-24T00:36:56.645Z,12.90
2017-06-24T00:39:23.349Z,10.73
2017-06-24T00:41:50.027Z,12.70
2017-06-24T00:44:16.703Z,12.95
2017-06-24T00:46:43.381Z,12.57
2017-06-24T00:49:10.062Z,12.75
2017-06-24T00:51:36.733Z,12.30
2017-06-24T00:54:03.423Z,12.80
2017-06-24T00:56:30.109Z,13.45
2017-06-24T00:58:56.801Z,12.37
2017-06-24T01:01:23.481Z,13.70
2017-06-24T01:03:50.158Z,13.35
2017-06-24T01:06:16.856Z,13.73
2017-06-24T01:08:43.536Z,13.70
2017-06-24T01:11:10.240Z,13.88
2017-06-24T01:13:36.915Z,12.90
2017-06-24T01:16:03.632Z,12.85
2017-06-24T01:18:30.303Z,12.50
2017-06-24T01:20:56.981Z,13.15
2017-06-24T01:23:23.661Z,14.38
2017-06-24T01:25:50.639Z,12.82
2017-06-24T01:28:17.337Z,12.68
2017-06-24T01:30:44.016Z,13.85
2017-06-24T01:33:10.700Z,13.05
2017-06-24T01:35:37.382Z,13.62
2017-06-24T01:38:04.056Z,12.48
2017-06-24T01:40:30.736Z,12.70
2017-06-24T01:42:57.432Z,13.05
2017-06-24T01:45:24.106Z,13.48
2017-06-24T01:47:50.812Z,12.75
2017-06-24T01:50:17.498Z,13.40
2017-06-24T01:52:44.221Z,14.45
2017-06-24T01:55:10.897Z,14.30
2017-06-24T01:57:37.588Z,13.23
2017-06-24T02:00:04.273Z,13.00
2017-06-24T02:02:30.952Z,13.30
2017-06-24T02:04:57.629Z,12.82
2017-06-24T02:07:24.303Z,12.30
2017-06-24T02:09:50.979Z,11.43
2017-06-24T02:12:17.667Z,12.02
2017-06-24T02:14:44.348Z,11.25
2017-06-24T02:17:11.035Z,12.35
2017-06-24T02:19:37.714Z,11.10
2017-06-24T02:22:04.404Z,11.10
2017-06-24T02:24:31.107Z,11.95
2017-06-24T02:26:57.784Z,11.75
2017-06-24T02:29:24.485Z,11.10
2017-06-24T02:31:51.980Z,10.18
2017-06-24T02:34:18.652Z,11.57
2017-06-24T02:36:45.325Z,11.07
2017-06-24T02:39:12.009Z,11.80
2017-06-24T02:41:38.691Z,10.73
2017-06-24T02:44:05.368Z,11.23
2017-06-24T02:46:32.046Z,11.32
2017-06-24T02:48:58.723Z,10.45
2017-06-24T02:51:25.400Z,10.65
2017-06-24T02:53:52.077Z,11.40
2017-06-24T02:56:18.791Z,11.30
2017-06-24T02:58:45.459Z,11.02
2017-06-24T03:01:12.144Z,11.10
2017-06-24T03:03:38.820Z,10.73
2017-06-24T03:06:05.511Z,10.50
2017-06-24T03:08:32.188Z,11.20
2017-06-24T03:10:58.860Z,11.48
2017-06-24T03:13:25.544Z,10.70
2017-06-24T03:15:52.228Z,10.50
2017-06-24T03:18:18.903Z,10.55
2017-06-24T03:20:45.584Z,10.45
2017-06-24T03:23:12.293Z,10.60
2017-06-24T03:25:38.971Z,10.90
2017-06-24T03:28:05.648Z,9.70
2017-06-24T03:30:32.328Z,10.45
2017-06-24T03:32:59.012Z,10.07
2017-06-24T03:35:25.673Z,8.75
2017-06-24T03:37:52.360Z,8.50
2017-06-24T03:40:19.051Z,8.70
2017-06-24T03:42:45.720Z,8.45
2017-06-24T03:45:12.402Z,10.43
2017-06-24T03:47:39.077Z,9.77
2017-06-24T03:50:05.759Z,9.77
2017-06-24T03:52:32.429Z,8.73
2017-06-24T03:54:59.108Z,10.52
2017-06-24T03:57:25.791Z,10.23
2017-06-24T03:59:52.465Z,9.52
2017-06-24T04:02:19.169Z,10.23
2017-06-24T04:04:45.860Z,9.60
2017-06-24T04:07:12.556Z,9.60
2017-06-24T04:09:39.223Z,9.32
2017-06-24T04:12:05.923Z,10.02
2017-06-24T04:14:32.600Z,8.98
2017-06-24T04:16:59.303Z,10.05
2017-06-24T04:19:25.975Z,10.40
2017-06-24T04:21:52.671Z,9.30
2017-06-24T04:24:19.338Z,9.25
2017-06-24T04:26:46.031Z,8.50
2017-06-24T04:29:12.709Z,8.38
2017-06-24T04:31:39.409Z,9.95
2017-06-24T04:34:06.092Z,9.02
2017-06-24T04:36:32.763Z,9.90
2017-06-24T04:38:59.443Z,9.20
2017-06-24T04:41:26.128Z,9.20
2017-06-24T04:43:52.837Z,8.65
2017-06-24T04:46:19.508Z,7.95
2017-06-24T04:48:46.207Z,8.80
2017-06-24T04:51:12.881Z,8.32
2017-06-24T04:53:39.577Z,8.52
2017-06-24T04:56:06.264Z,9.18
2017-06-24T04:58:32.979Z,9.13
2017-06-24T05:00:59.647Z,8.40
2017-06-24T05:03:26.345Z,8.05
2017-06-24T05:05:53.024Z,8.95
2017-06-24T05:08:19.699Z,7.10
2017-06-24T05:10:46.360Z,7.90
2017-06-24T05:13:13.034Z,8.93
2017-06-24T05:15:39.761Z,8.52
2017-06-24T05:18:06.440Z,8.70
2017-06-24T05:20:33.140Z,7.85
2017-06-24T05:22:59.815Z,7.75
2017-06-24T05:25:26.516Z,6.57
2017-06-24T05:27:53.197Z,7.55
2017-06-24T05:30:19.903Z,7.80
2017-06-24T05:32:46.572Z,7.30
2017-06-24T05:35:13.253Z,7.85
2017-06-24T05:37:39.939Z,7.75
2017-06-24T05:40:06.623Z,6.97
2017-06-24T05:42:33.318Z,6.90
2017-06-24T05:44:59.996Z,6.65
2017-06-24T05:47:26.683Z,7.10
2017-06-24T05:49:53.361Z,7.28
2017-06-24T05:52:20.060Z,7.55
2017-06-24T05:54:46.743Z,7.78
2017-06-24T05:57:13.444Z,6.93
2017-06-24T05:59:40.112Z,6.67
2017-06-24T06:02:06.822Z,8.45
2017-06-24T06:04:33.492Z,7.70
2017-06-24T06:07:00.193Z,7.40
2017-06-24T06:09:26.856Z,7.30
2017-06-24T06:11:53.523Z,8.13
2017-06-24T06:14:20.180Z,8.07
2017-06-24T06:16:46.852Z,9.47
2017-06-24T06:19:13.524Z,9.60
2017-06-24T06:21:40.187Z,8.90
2017-06-24T06:24:06.882Z,9.10
2017-06-24T06:26:33.551Z,9.50
2017-06-24T06:29:00.272Z,9.40
2017-06-24T06:31:26.952Z,11.38
2017-06-24T06:33:54.559Z,9.90
2017-06-24T06:36:21.225Z,9.60
2017-06-24T06:38:47.905Z,9.70
2017-06-24T06:41:14.580Z,9.83
2017-06-24T06:43:41.256Z,11.00
2017-06-24T06:46:07.928Z,12.20
2017-06-24T06:48:34.603Z,12.07
2017-06-24T06:51:01.280Z,11.90
2017-06-24T06:53:27.964Z,13.10
2017-06-24T06:55:54.640Z,11.20
2017-06-24T06:58:21.329Z,12.90
2017-06-24T07:00:48.035Z,13.00
2017-06-24T07:03:14.711Z,14.60
2017-06-24T07:05:41.661Z,13.50
2017-06-24T07:08:08.357Z,12.23
2017-06-24T07:10:35.036Z,13.70
2017-06-24T07:13:01.713Z,13.10
2017-06-24T07:15:28.396Z,13.52
2017-06-24T07:17:55.110Z,15.30
2017-06-24T07:20:21.781Z,12.00
2017-06-24T07:22:48.480Z,12.40
2017-06-24T07:25:15.156Z,13.47
2017-06-24T07:27:41.863Z,13.50
2017-06-24T07:30:08.541Z,13.77
2017-06-24T07:32:35.236Z,12.30
2017-06-24T07:35:01.920Z,14.43
2017-06-24T07:37:28.623Z,13.13
2017-06-24T07:39:55.300Z,13.37
2017-06-24T07:42:22.009Z,12.87
2017-06-24T07:44:48.684Z,12.37
2017-06-24T07:47:15.361Z,13.30
2017-06-24T07:49:42.035Z,12.57
2017-06-24T07:52:08.711Z,12.60
2017-06-24T07:54:35.408Z,12.30
2017-06-24T07:57:02.089Z,13.03
2017-06-24T07:59:28.788Z,12.60
2017-06-24T08:01:55.460Z,14.77
2017-06-24T08:04:22.159Z,13.17
2017-06-24T08:06:48.835Z,18.27
2017-06-24T08:09:15.544Z,14.33
2017-06-24T08:11:42.227Z,15.73
2017-06-24T08:14:08.928Z,16.83
2017-06-24T08:16:35.608Z,13.13
2017-06-24T08:19:02.317Z,14.00
2017-06-24T08:21:29.004Z,13.73
2017-06-24T08:23:55.676Z,13.40
2017-06-24T08:26:22.358Z,13.87
2017-06-24T08:28:49.067Z,13.20
2017-06-24T08:31:15.739Z,12.50
2017-06-24T08:33:42.417Z,13.40
2017-06-24T08:36:09.118Z,12.03
2017-06-24T08:38:35.796Z,12.70
2017-06-24T08:41:02.544Z,11.23
2017-06-24T08:43:29.220Z,11.50
2017-06-24T08:45:55.895Z,12.10
2017-06-24T08:48:22.565Z,12.67
2017-06-24T08:50:49.244Z,12.33
2017-06-24T08:53:15.927Z,12.27
2017-06-24T08:55:42.612Z,11.87
2017-06-24T08:58:09.279Z,11.73
2017-06-24T09:00:35.961Z,12.43
2017-06-24T09:03:02.669Z,11.67
2017-06-24T09:05:29.344Z,12.53
2017-06-24T09:07:56.045Z,13.17
2017-06-24T09:10:22.727Z,11.93
2017-06-24T09:12:49.425Z,11.90
2017-06-24T09:15:16.104Z,11.70
2017-06-24T09:17:42.812Z,12.13
2017-06-24T09:20:09.484Z,10.63
2017-06-24T09:22:36.153Z,12.10
2017-06-24T09:25:02.839Z,11.70
2017-06-24T09:27:29.525Z,12.90
2017-06-24T09:29:56.212Z,12.80
2017-06-24T09:32:22.896Z,12.60
2017-06-24T09:34:49.588Z,11.60
2017-06-24T09:37:16.262Z,10.53
2017-06-24T09:39:42.937Z,11.30
2017-06-24T09:42:09.607Z,10.97
2017-06-24T09:44:36.313Z,11.47
2017-06-24T09:47:02.992Z,10.90
2017-06-24T09:49:29.695Z,10.77
2017-06-24T09:51:56.364Z,10.60
2017-06-24T09:54:23.053Z,11.40
2017-06-24T09:56:49.952Z,10.83
2017-06-24T09:59:16.618Z,11.23
2017-06-24T10:01:43.293Z,10.53
2017-06-24T10:04:09.965Z,11.67
2017-06-24T10:06:36.637Z,11.30
2017-06-24T10:09:03.336Z,10.63
2017-06-24T10:11:30.025Z,11.40
2017-06-24T10:13:56.704Z,11.03
2017-06-24T10:16:23.380Z,11.83
2017-06-24T10:18:50.054Z,11.50
2017-06-24T10:21:16.728Z,11.60
2017-06-24T10:23:43.410Z,11.20
2017-06-24T10:26:10.112Z,11.03
2017-06-24T10:28:36.792Z,11.40
2017-06-24T10:31:03.466Z,12.70
2017-06-24T10:33:30.149Z,11.40
2017-06-24T10:35:56.824Z,12.47
2017-06-24T10:38:23.506Z,11.13
2017-06-24T10:40:50.212Z,11.07
2017-06-24T10:43:16.897Z,12.07
2017-06-24T10:45:43.568Z,10.93
2017-06-24T10:48:10.270Z,11.90
2017-06-24T10:50:36.960Z,11.97
2017-06-24T10:53:03.667Z,11.47
2017-06-24T10:55:30.356Z,12.20
2017-06-24T10:57:57.029Z,10.87
2017-06-24T11:00:23.723Z,15.20
2017-06-24T11:02:50.402Z,12.50
2017-06-24T11:05:17.111Z,11.70
2017-06-24T11:07:43.793Z,14.57
2017-06-24T11:10:10.514Z,11.90
2017-06-24T11:12:37.188Z,10.47
2017-06-24T11:15:03.885Z,9.93
2017-06-24T11:17:30.551Z,8.83
2017-06-24T11:19:57.264Z,8.37
2017-06-24T11:22:23.936Z,8.70
2017-06-24T11:24:50.600Z,7.70
2017-06-24T11:27:17.271Z,7.77
2017-06-24T11:29:43.938Z,8.33
2017-06-24T11:32:10.628Z,8.10
2017-06-24T11:34:37.334Z,9.13
2017-06-24T11:37:04.044Z,9.20
2017-06-24T11:39:30.711Z,9.37
2017-06-24T11:41:57.409Z,9.43
2017-06-24T11:44:24.076Z,9.60
2017-06-24T11:46:50.781Z,10.93
2017-06-24T11:49:17.452Z,10.03
2017-06-24T11:51:44.154Z,11.00
2017-06-24T11:54:10.825Z,10.10
2017-06-24T11:56:37.542Z,12.30
2017-06-24T11:59:04.219Z,15.43
2017-06-24T12:01:30.906Z,11.63
2017-06-24T12:03:57.615Z,13.87
2017-06-24T12:06:24.289Z,16.87
2017-06-24T12:08:50.983Z,12.60
2017-06-24T12:11:17.657Z,10.90
2017-06-24T12:13:44.357Z,9.97
2017-06-24T12:16:11.024Z,9.13
2017-06-24T12:18:37.719Z,10.10
2017-06-24T12:21:04.384Z,9.20
2017-06-24T12:23:31.086Z,9.10
2017-06-24T12:25:57.763Z,9.87
2017-06-24T12:28:24.455Z,9.00
2017-06-24T12:30:51.124Z,9.40
2017-06-24T12:33:17.806Z,10.60
2017-06-24T12:35:44.505Z,11.60
2017-06-24T12:38:11.175Z,12.07
2017-06-24T12:40:37.881Z,13.90
2017-06-24T12:43:04.561Z,11.00
2017-06-24T12:45:31.261Z,10.83
2017-06-24T12:47:57.946Z,11.90
2017-06-24T12:50:24.644Z,12.93
2017-06-24T12:52:51.321Z,20.40
2017-06-24T12:55:18.028Z,11.03
2017-06-24T12:57:44.699Z,19.43
2017-06-24T13:00:11.379Z,12.73
2017-06-24T13:02:38.060Z,15.33
2017-06-24T13:05:04.743Z,13.50
2017-06-24T13:07:31.438Z,13.77
2017-06-24T13:09:58.111Z,13.07
2017-06-24T13:12:24.809Z,12.50
2017-06-24T13:14:51.493Z,13.43
2017-06-24T13:17:18.229Z,14.33
2017-06-24T13:19:44.903Z,13.30
2017-06-24T13:22:11.585Z,13.47
2017-06-24T13:24:38.256Z,19.90
2017-06-24T13:27:04.931Z,16.93
2017-06-24T13:29:31.605Z,13.83
2017-06-24T13:31:58.276Z,13.90
2017-06-24T13:34:24.959Z,13.70
2017-06-24T13:36:51.632Z,14.67
2017-06-24T13:39:18.337Z,15.13
2017-06-24T13:41:45.008Z,13.37
2017-06-24T13:44:11.723Z,14.23
2017-06-24T13:46:38.392Z,15.03
2017-06-24T13:49:05.085Z,14.40
2017-06-24T13:51:31.772Z,15.70
2017-06-24T13:53:58.465Z,14.93
2017-06-24T13:56:25.148Z,15.20
2017-06-24T13:58:51.825Z,15.10
2017-06-24T14:01:18.497Z,13.97
2017-06-24T14:03:45.168Z,15.20
2017-06-24T14:06:11.864Z,14.33
2017-06-24T14:08:38.541Z,14.80
2017-06-24T14:11:05.249Z,14.03
2017-06-24T14:13:31.923Z,13.60
2017-06-24T14:15:58.597Z,14.60
2017-06-24T14:18:25.276Z,14.10
2017-06-24T14:20:51.967Z,13.40
2017-06-24T14:23:18.651Z,13.10
2017-06-24T14:25:45.340Z,14.60
2017-06-24T14:28:12.020Z,13.07
2017-06-24T14:30:38.716Z,12.80
2017-06-24T14:33:05.420Z,13.70
2017-06-24T14:35:32.086Z,12.57
2017-06-24T14:37:58.752Z,13.27
2017-06-24T14:40:25.427Z,13.10
2017-06-24T14:42:52.105Z,13.20
2017-06-24T14:45:18.792Z,13.80
2017-06-24T14:47:45.480Z,13.27
2017-06-24T14:50:12.160Z,12.88
2017-06-24T14:52:38.840Z,13.52
2017-06-24T14:55:05.523Z,12.50
2017-06-24T14:57:32.216Z,13.25
2017-06-24T14:59:58.893Z,13.63
2017-06-24T15:02:25.577Z,13.37
2017-06-24T15:04:52.277Z,14.10
2017-06-24T15:07:19.191Z,13.77
2017-06-24T15:09:45.908Z,13.33
2017-06-24T15:12:12.599Z,15.37
2017-06-24T15:14:39.271Z,14.03
2017-06-24T15:17:05.951Z,15.47
2017-06-24T15:19:32.623Z,13.80
2017-06-24T15:21:59.300Z,14.83
2017-06-24T15:24:25.974Z,14.07
2017-06-24T15:26:52.650Z,14.90
2017-06-24T15:29:19.323Z,13.83
2017-06-24T15:31:45.992Z,15.00
2017-06-24T15:34:12.662Z,14.10
2017-06-24T15:36:39.340Z,14.97
2017-06-24T15:39:06.016Z,15.13
2017-06-24T15:41:32.716Z,13.80
2017-06-24T15:43:59.389Z,13.70
2017-06-24T15:46:26.060Z,12.70
2017-06-24T15:48:52.724Z,13.20
2017-06-24T15:51:19.397Z,13.30
2017-06-24T15:53:46.075Z,13.80
2017-06-24T15:56:12.744Z,12.87
2017-06-24T15:58:39.423Z,13.77
2017-06-24T16:01:06.097Z,14.33
2017-06-24T16:03:32.771Z,12.93
2017-06-24T16:05:59.452Z,16.10
2017-06-24T16:08:26.121Z,14.50
2017-06-24T16:10:52.787Z,14.23
2017-06-24T16:13:19.494Z,15.27
2017-06-24T16:15:46.165Z,14.83
2017-06-24T16:18:12.833Z,14.10
2017-06-24T16:20:39.520Z,15.23
2017-06-24T16:23:06.221Z,15.13
2017-06-24T16:25:32.895Z,15.70
2017-06-24T16:27:59.577Z,17.00
2017-06-24T16:30:26.299Z,16.42
2017-06-24T16:32:52.981Z,16.48
2017-06-24T16:35:19.666Z,17.70
2017-06-24T16:37:46.384Z,16.62
2017-06-24T16:40:13.078Z,17.42
2017-06-24T16:42:40.699Z,18.00
2017-06-24T16:45:07.389Z,19.35
2017-06-24T16:47:34.091Z,19.30
2017-06-24T16:50:00.776Z,20.40
2017-06-24T16:52:27.473Z,23.10
2017-06-24T16:54:54.167Z,21.67
2017-06-24T16:57:20.884Z,21.10
2017-06-24T16:59:47.585Z,21.67
2017-06-24T17:02:14.297Z,20.10
2017-06-24T17:04:40.983Z,22.37
2017-06-24T17:07:07.677Z,20.33
2017-06-24T17:09:34.393Z,21.50
2017-06-24T17:12:01.071Z,20.23
2017-06-24T17:14:27.780Z,21.35
2017-06-24T17:16:54.468Z,20.37
2017-06-24T17:19:21.171Z,20.15
2017-06-24T17:21:47.866Z,19.55
2017-06-24T17:24:14.576Z,18.98
2017-06-24T17:26:41.259Z,19.95
2017-06-24T17:29:07.985Z,19.37
2017-06-24T17:31:34.679Z,19.23
2017-06-24T17:34:01.359Z,20.15
2017-06-24T17:36:28.055Z,17.75
2017-06-24T17:38:54.740Z,19.80
2017-06-24T17:41:21.451Z,19.23
2017-06-24T17:43:48.131Z,19.60
2017-06-24T17:46:14.844Z,19.02
2017-06-24T17:48:41.532Z,18.08
2017-06-24T17:51:08.239Z,19.40
2017-06-24T17:53:34.912Z,18.07
2017-06-24T17:56:01.624Z,18.67
2017-06-24T17:58:28.311Z,19.62
2017-06-24T18:00:55.022Z,18.65
2017-06-24T18:03:21.721Z,17.00
2017-06-24T18:05:48.439Z,18.55
2017-06-24T18:08:15.124Z,17.95
2017-06-24T18:10:41.808Z,17.10
2017-06-24T18:13:08.488Z,18.42
2017-06-24T18:15:35.180Z,19.12
2017-06-24T18:18:01.877Z,17.85
2017-06-24T18:20:28.563Z,19.45
2017-06-24T18:22:55.273Z,20.20
2017-06-24T18:25:21.948Z,20.52
2017-06-24T18:27:48.649Z,21.33
2017-06-24T18:30:15.336Z,20.33
2017-06-24T18:32:42.052Z,19.70
2017-06-24T18:35:08.739Z,19.80
2017-06-24T18:37:35.465Z,18.65
2017-06-24T18:40:02.144Z,18.58
2017-06-24T18:42:28.821Z,19.58
2017-06-24T18:44:55.497Z,18.08
2017-06-24T18:47:22.183Z,18.75
2017-06-24T18:49:48.911Z,18.40
2017-06-24T18:52:15.596Z,17.67
2017-06-24T18:54:42.308Z,18.62
2017-06-24T18:57:08.990Z,19.33
2017-06-24T18:59:35.701Z,18.45
2017-06-24T19:02:02.382Z,19.85
2017-06-24T19:04:29.089Z,17.73
2017-06-24T19:06:55.772Z,17.70
2017-06-24T19:09:22.472Z,19.33
2017-06-24T19:11:49.151Z,19.87
2017-06-24T19:14:15.864Z,18.85
2017-06-24T19:16:42.552Z,20.20
2017-06-24T19:19:09.239Z,18.62
2017-06-24T19:21:35.938Z,18.60
2017-06-24T19:24:02.612Z,18.62
2017-06-24T19:26:29.284Z,17.17
2017-06-24T19:28:55.959Z,19.55
2017-06-24T19:31:22.664Z,18.55
2017-06-24T19:33:49.339Z,21.10
2017-06-24T19:36:16.036Z,19.92
2017-06-24T19:38:42.719Z,18.85
2017-06-24T19:41:09.422Z,19.15
2017-06-24T19:43:36.091Z,20.30
2017-06-24T19:46:02.767Z,19.37
2017-06-24T19:48:29.444Z,20.23
2017-06-24T19:50:56.111Z,17.65
2017-06-24T19:53:22.783Z,17.50
2017-06-24T19:55:49.484Z,19.12
2017-06-24T19:58:16.203Z,19.20
2017-06-24T20:00:42.880Z,19.42
2017-06-24T20:03:09.580Z,19.20
2017-06-24T20:05:36.255Z,20.88
2017-06-24T20:08:02.952Z,20.92
2017-06-24T20:10:29.627Z,18.58
2017-06-24T20:12:56.313Z,18.20
2017-06-24T20:15:22.988Z,19.20
2017-06-24T20:17:49.664Z,18.92
2017-06-24T20:20:16.351Z,17.90
2017-06-24T20:22:43.031Z,18.30
2017-06-24T20:25:09.705Z,17.55
2017-06-24T20:27:36.375Z,18.55
2017-06-24T20:30:03.046Z,17.00
2017-06-24T20:32:29.720Z,16.60
2017-06-24T20:34:56.444Z,16.27
2017-06-24T20:37:23.121Z,17.08
2017-06-24T20:39:49.803Z,16.85
2017-06-24T20:42:16.480Z,18.87
2017-06-24T20:44:43.170Z,17.17
2017-06-24T20:47:09.849Z,17.62
2017-06-24T20:49:36.537Z,15.90
2017-06-24T20:52:03.218Z,16.12
2017-06-24T20:54:29.895Z,17.08
2017-06-24T20:56:56.585Z,15.25
2017-06-24T20:59:23.264Z,15.68
2017-06-24T21:01:49.944Z,14.23
2017-06-24T21:04:16.620Z,14.48
2017-06-24T21:06:43.337Z,14.35
2017-06-24T21:09:10.009Z,14.90
2017-06-24T21:11:36.678Z,16.05
2017-06-24T21:14:03.353Z,14.80
2017-06-24T21:16:30.024Z,14.07
2017-06-24T21:18:56.700Z,15.43
2017-06-24T21:21:23.374Z,15.38
2017-06-24T21:23:50.044Z,16.08
2017-06-24T21:26:16.721Z,15.88
2017-06-24T21:28:43.407Z,18.80
2017-06-24T21:31:10.109Z,17.30
2017-06-24T21:33:36.781Z,17.12
2017-06-24T21:36:03.460Z,19.00
2017-06-24T21:38:30.173Z,18.58
2017-06-24T21:40:56.847Z,19.05
2017-06-24T21:43:23.526Z,19.55
2017-06-24T21:45:50.201Z,19.12
2017-06-24T21:48:16.883Z,20.33
2017-06-24T21:50:43.564Z,20.67
2017-06-24T21:53:10.240Z,20.73
2017-06-24T21:55:36.912Z,19.60
2017-06-24T21:58:03.587Z,19.37
2017-06-24T22:00:30.266Z,19.85
2017-06-24T22:02:56.946Z,19.73
2017-06-24T22:05:23.616Z,18.65
2017-06-24T22:07:50.289Z,17.00
2017-06-24T22:10:16.975Z,17.48
2017-06-24T22:12:43.649Z,17.42
2017-06-24T22:15:10.353Z,17.75
2017-06-24T22:17:37.028Z,16.62
2017-06-24T22:20:03.700Z,15.55
2017-06-24T22:22:30.383Z,14.80
2017-06-24T22:24:57.064Z,13.77
2017-06-24T22:27:23.740Z,11.73
2017-06-24T22:29:50.418Z,11.63
2017-06-24T22:32:17.096Z,11.75
2017-06-24T22:34:43.792Z,10.93
2017-06-24T22:37:10.463Z,11.40
2017-06-24T22:39:37.138Z,11.27
2017-06-24T22:42:03.815Z,9.93
2017-06-24T22:44:30.508Z,11.73
2017-06-24T22:46:57.214Z,10.75
2017-06-24T22:49:23.891Z,9.63
2017-06-24T22:51:50.558Z,8.25
2017-06-24T22:54:17.228Z,9.30
2017-06-24T22:56:43.899Z,8.20
2017-06-24T22:59:10.602Z,8.40
2017-06-24T23:01:37.272Z,8.00
2017-06-24T23:04:03.959Z,7.95
2017-06-24T23:06:30.623Z,8.52
2017-06-24T23:08:57.320Z,8.32
2017-06-24T23:11:23.987Z,7.47
2017-06-24T23:13:50.676Z,7.20
2017-06-24T23:16:17.347Z,7.95
2017-06-24T23:18:44.062Z,7.62
2017-06-24T23:21:10.728Z,7.78
2017-06-24T23:23:37.404Z,7.25
2017-06-24T23:26:04.080Z,7.00
2017-06-24T23:28:30.756Z,7.35
2017-06-24T23:30:57.448Z,6.30
2017-06-24T23:33:24.118Z,6.30
2017-06-24T23:35:50.813Z,6.50
2017-06-24T23:38:17.483Z,5.60
2017-06-24T23:40:44.178Z,6.05
2017-06-24T23:43:10.847Z,6.57
2017-06-24T23:45:37.531Z,6.40
2017-06-24T23:48:04.202Z,5.57
2017-06-24T23:50:30.895Z,5.72
2017-06-24T23:52:57.562Z,5.62
2017-06-24T23:55:24.261Z,5.50
2017-06-24T23:57:50.931Z,6.28
